Clover Valley, Nevada Weather observations

Data are for 10 minute period ending at time listed.
 Day   Time   Solar   Ave.   Ave.  Ave.  Vector  Max.   Baro.   Total    
  of    of     Rad.   Air    Rel.  Wind   Wind   Wind  Press.  Precip.   
Year   Day            Temp.  Hum.  Speed  Dir.   Gust                    
2014   (PST)  Kw/m2    F      %     mph   deg.    mph    mb.     in.     
-------------------------------------------------------------------------
 211   19:20   0.00   66.1    66    5.0    77     6.7   831.5    0.00 
 211   19:30   0.00   62.5    79    5.5    86     7.6   831.6    0.00 
 211   19:40   0.00   64.3    71    5.3    73     9.5   831.8    0.00 
 211   19:50   0.00   65.8    65    4.7    44     6.4   832.1    0.00 
 211   20:00   0.00   67.4    59    2.8   347     5.8   832.3    0.00 
 211   20:10   0.00   70.8    50    5.1   350    12.9   832.4    0.00 
 211   20:20   0.00   72.0    49    3.3    40     8.8   832.5    0.00 
 211   20:30   0.00   68.4    54    4.5   354     9.1   832.7    0.00 
 211   20:40   0.00   68.0    48    4.5   339     5.9   832.8    0.00 
 211   20:50   0.00   67.4    49    3.7   338     5.6   832.9    0.00 
 211   21:00   0.00   65.4    56    3.4   352     4.1   832.8    0.00 
 211   21:10   0.00   63.9    58    3.5   332     4.7   832.9    0.00 
 211   21:20   0.00   62.0    65    2.5   314     4.3   833.0    0.00 
 211   21:30   0.00   61.6    65    2.3   345     4.4   833.1    0.00 
 211   21:40   0.00   61.7    65    2.4    30     5.0   833.2    0.00 
 211   21:50   0.00   60.9    72    1.5   342     3.3   833.3    0.00 
 211   22:00   0.00   61.2    68    4.3   303     7.1   833.4    0.00 
 211   22:10   0.00   64.7    58    3.7   322     8.3   833.4    0.00 
 211   22:20   0.00   65.4    56    2.5   230     6.5   833.3    0.00 
 211   22:30   0.00   65.6    53    3.5   344     7.2   833.2    0.00 
 211   22:40   0.00   64.3    56    2.9   304     6.9   833.1    0.00 
 211   22:50   0.00   63.2    58    4.9   299     6.6   833.1    0.00 
 211   23:00   0.00   61.6    63    2.8   318     5.2   833.1    0.00 
 211   23:10   0.00   62.2    59    0.6    32     2.3   833.1    0.00 
 211   23:20   0.00   62.1    61    1.8   214     3.3   832.9    0.00 
 211   23:30   0.00   61.0    64    1.2   175     2.6   832.8    0.00 
 211   23:40   0.00   60.3    66    2.1   210     3.2   832.7    0.00 
 211   23:50   0.00   61.0    66    3.6   238     4.3   832.6    0.00 
 212    0:00   0.00   59.5    72    2.7   204     3.5   832.7    0.00 
 212    0:10   0.00   60.1    69    1.3   164     2.6   832.6    0.00 
 212    0:20   0.00   58.7    75    2.1    33     3.8   832.6    0.00 
 212    0:30   0.00   58.7    74    2.1    43     2.9   832.6    0.00 
 212    0:40   0.00   59.6    66    2.9    54     4.5   832.5    0.00 
 212    0:50   0.00   58.4    70    4.6     5     6.4   832.7    0.00 
 212    1:00   0.00   57.7    70    2.4   350     3.7   832.6    0.00 
 212    1:10   0.00   57.4    71    1.2    46     3.8   832.5    0.00 
 212    1:20   0.00   56.5    75    2.6   100     3.9   832.6    0.00 
 212    1:30   0.00   57.0    70    1.6    54     2.3   832.5    0.00 
 212    1:40   0.00   58.8    65    1.4   342     2.2   832.5    0.00 
 212    1:50   0.00   58.7    69    2.0   313     2.8   832.5    0.00 
 212    2:00   0.00   58.2    67    2.2   265     3.1   832.5    0.00 
 212    2:10   0.00   58.0    68    3.1   258     3.6   832.4    0.00 
 212    2:20   0.00   57.5    71    1.3   303     2.7   832.3    0.00 
 212    2:30   0.00   57.3    73    1.1   136     3.9   832.2    0.00 
 212    2:40   0.00   55.3    78    1.4   184     2.3   832.1    0.00 
 212    2:50   0.00   55.2    77    4.0   220     6.1   832.1    0.00 
 212    3:00   0.00   55.2    77    4.1   182     5.6   832.0    0.00 
 212    3:10   0.00   55.9    72    2.8   184     3.5   832.1    0.00 
 212    3:20   0.00   56.7    71    3.5   187     5.1   832.1    0.00 
 212    3:30   0.00   57.5    69    3.9   189     4.9   832.0    0.00 
 212    3:40   0.00   57.6    70    3.1   190     4.2   832.0    0.00 
 212    3:50   0.00   57.3    69    3.0   137     3.7   831.9    0.00 
 212    4:00   0.00   56.6    73    3.1   114     5.2   832.0    0.00 
 212    4:10   0.00   54.9    76    4.1    61     5.2   832.1    0.00 
 212    4:20   0.00   53.0    78    3.6    81     4.3   831.9    0.00 
 212    4:30   0.00   52.3    79    2.4   109     3.7   832.1    0.00 
 212    4:40   0.01   51.9    80    2.8   278     5.6   832.2    0.00 
 212    4:50   0.01   53.2    76    1.9    18     3.8   832.2    0.00 
 212    5:00   0.02   52.2    80    4.0   318     5.1   832.3    0.00 
 212    5:10   0.05   53.0    78    4.0   299     5.6   832.3    0.00 
 212    5:20   0.07   54.0    79    3.6   299     4.7   832.3    0.00 
 212    5:30   0.08   55.1    78    2.9   295     4.3   832.3    0.00 
 212    5:40   0.16   57.3    78    1.2   277     3.1   832.3    0.00 
 212    5:50   0.17   60.2    72    2.0   304     3.2   832.2    0.00 
 212    6:00   0.17   62.4    68    1.8   292     2.6   832.4    0.00 
 212    6:10   0.16   63.5    66    1.9   279     2.8   832.5    0.00 
 212    6:20   0.21   64.5    64    1.0   253     2.0   832.5    0.00 
 212    6:30   0.18   66.4    57    0.5   245     1.8   832.5    0.00 
 212    6:40   0.27   67.1    59    1.1    72     2.7   832.6    0.00 
 212    6:50   0.34   66.9    60    2.0   108     3.0   832.7    0.00 
 212    7:00   0.38   69.5    52    0.2    85     1.1   832.7    0.00 
 212    7:10   0.34   70.2    53    0.9    49     1.9   832.7    0.00 
 212    7:20   0.46   70.3    57    2.9    75     5.3   832.8    0.00 
 212    7:30   0.48   70.6    54    2.7   101     4.8   832.8    0.00 
 212    7:40   0.49   70.9    54    3.2   124     4.9   832.7    0.00 
 212    7:50   0.55   72.0    49    2.4   122     4.5   832.7    0.00 
 212    8:00   0.55   73.8    45    1.2    59     3.1   832.8    0.00 
 212    8:10   0.60   74.2    45    1.3    59     3.6   832.6    0.00 
 212    8:20   0.30   75.5    41    1.0   326     2.6   832.6    0.00 
 212    8:30   0.00   76.3    41    0.7   143     2.6   832.5    0.00 
 212    8:40   0.00   76.3    41    1.8   321     3.5   832.5    0.00 
 212    8:50   0.49   75.8    41    1.4   314     2.6   832.4    0.00 
 212    9:00   0.36   77.3    41    1.3   285     4.3   832.3    0.00 
 212    9:10   0.51   76.7    40    1.9   258     4.9   832.3    0.00 
 212    9:20   0.30   78.1    37    1.1    74     2.9   832.2    0.00 
 212    9:30   0.52   79.1    38    1.0    26     2.6   832.2    0.00 
 212    9:40   0.07   78.8    39    1.9    96     4.6   832.0    0.00 
 212    9:50   0.00   79.0    37    2.2   179     5.8   831.8    0.00 
 212   10:00   0.00   79.1    36    2.5   171     5.6   831.6    0.00 
 212   10:10   0.24   78.0    37    3.5   280     6.4   831.7    0.00 
 212   10:20   0.23   76.8    40    3.4   272     5.7   831.6    0.00 
 212   10:30   0.16   76.1    38    2.5   253     4.5   831.6    0.00 
 212   10:40   0.11   74.6    46    4.1   289     7.5   831.5    0.00 
 212   10:50   0.08   71.9    50    5.4   292     8.8   831.6    0.00 
 212   11:00   0.06   70.3    55    4.2   279     6.6   831.6    0.00 
 212   11:10   0.05   69.9    56    5.7   268     7.5   831.8    0.00 
 212   11:20   0.06   69.9    56    4.2   280     5.9   831.8    0.00 
 212   11:30   0.07   69.7    56    3.8   347     8.3   832.2    0.00 
 212   11:40   0.08   70.2    50    5.5    53     9.0   831.9    0.00 
 212   11:50   0.10   69.6    50    6.9    75    12.3   832.1    0.00 
 212   12:00   0.10   67.9    54   12.0   123    20.4   832.4    0.00 
 212   12:10   0.10   65.9    59   11.9   145    18.4   832.6    0.00 
 212   12:20   0.07   65.2    59    9.8   149    14.7   832.7    0.00 
 212   12:30   0.07   66.2    52    7.8   157    11.0   832.5    0.00 
 212   12:40   0.09   65.3    55    5.9   169     9.5   832.3    0.00 
 212   12:50   0.10   65.4    62    4.3   211     8.0   832.6    0.00 
 212   13:00   0.12   66.1    64    1.9   245     3.6   833.0    0.00 
 212   13:10   0.15   66.4    67    2.3   165     5.4   833.0    0.00 
 212   13:20   0.16   67.3    60    3.6   193     7.7   833.0    0.00 
 212   13:30   0.15   67.1    58    6.3   210     9.1   832.9    0.00 
 212   13:40   0.14   66.2    59    6.8   209     9.6   832.9    0.00 
 212   13:50   0.15   66.0    63    5.9   210     8.2   832.7    0.00 
 212   14:00   0.17   65.9    62    5.7   220     9.3   832.8    0.00 
 212   14:10   0.14   66.7    61    3.9   245     6.4   832.8    0.00 
 212   14:20   0.16   67.5    57    2.7   285     3.9   833.0    0.00 
 212   14:30   0.16   68.0    55    4.1   314    13.4   833.4    0.00 
 212   14:40   0.19   65.6    60   16.6   349    25.4   833.8    0.00 
 212   14:50   0.20   64.0    62   21.8   346    30.4   833.9    0.00 
 212   15:00   0.12   61.7    68   19.7   345    28.6   834.1    0.00 
 212   15:10   0.10   59.9    73   16.5   354    23.2   834.0    0.00 
 212   15:20   0.06   59.4    74   17.1   353    30.1   833.9    0.00 
 212   15:30   0.03   58.4    77   14.2   334    24.6   834.1    0.00 
 212   15:40   0.02   59.7    70   11.2   332    19.6   834.2    0.00 
 212   15:50   0.02   59.6    73    7.8   316    13.7   834.4    0.00 
 212   16:00   0.02   59.0    77    6.6   290     9.8   834.3    0.00 
 212   16:10   0.02   59.1    78    4.8   268     6.6   834.1    0.00 
 212   16:20   0.02   59.3    80    4.1   256     7.0   834.1    0.00 
 212   16:30   0.02   60.4    73    6.8   248    15.9   833.8    0.00 
 212   16:40   0.02   60.4    73   10.9   236    18.5   833.4    0.00 
 212   16:50   0.02   61.1    68   11.9   231    18.3   832.9    0.00 
 212   17:00   0.02   61.7    65    9.8   225    13.0   832.4    0.00 
 212   17:10   0.02   61.4    67   11.9   225    16.7   831.9    0.00 
 212   17:20   0.02   61.9    65   10.3   207    17.5   831.3    0.00 
 212   17:30   0.03   63.0    60   12.1   211    21.0   830.7    0.00 
 212   17:40   0.04   62.7    63   10.6   176    16.0   830.4    0.00 
 212   17:50   0.00   60.7    72   10.2   161    18.0   830.5    0.00 
 212   18:00   0.01   60.7    72   11.7   170    17.8   830.4    0.00 
 212   18:10   0.00   60.6    73    8.2   169    11.5   830.2    0.00 
 212   18:20   0.00   60.9    70    5.3   151    10.2   830.3    0.00 
 212   18:30   0.01   59.1    76    6.9    82    12.7   830.9    0.00 
 212   18:40   0.01   60.2    69    8.5    67    13.4   831.3    0.00 
 212   18:50   0.00   60.0    70    7.7    62    13.0   831.5    0.00 
 212   19:00   0.00   59.7    72    7.2    12    10.0   831.9    0.00 
 212   19:10   0.00   58.9    75    5.1    27     9.9   832.0    0.00 

Return to Clover Valley graphs page.


Western Regional Climate Center,wrcc@dri.edu